Time;durP1;ratioP1;P1;durP2;ratioP2;P2;SDS_P1;SDS_P2;PMS_P1;PMS_P2;Temp;Humidity;BMP_temperature;BMP_pressure;BME280_temperature;BME280_humidity;BME280_pressure;Samples;Min_cycle;Max_cycle;Signal;HPM_P1;HPM_P2
2022/12/28 00:01:48;;;;;;;1.03;0.50;;;;;;;;;;4981075;28;20253;-92
2022/12/28 00:04:16;;;;;;;0.60;0.60;;;;;;;;;;4982462;28;20635;-93
2022/12/28 00:07:03;;;;;;;0.33;0.33;;;;;;;;;;4981148;28;20583;-94
2022/12/28 00:09:37;;;;;;;0.40;0.40;;;;;;;;;;4979982;28;20222;-94
2022/12/28 00:12:07;;;;;;;0.10;0.10;;;;;;;;;;4980788;28;20205;-93
2022/12/28 00:14:38;;;;;;;0.37;0.37;;;;;;;;;;4981510;28;20206;-92
2022/12/28 00:17:13;;;;;;;1.77;0.67;;;;;;;;;;4981934;28;20206;-93
2022/12/28 00:19:42;;;;;;;0.30;0.30;;;;;;;;;;4987762;28;20284;-92
2022/12/28 00:22:12;;;;;;;0.23;0.23;;;;;;;;;;4995552;28;20182;-93
2022/12/28 00:24:46;;;;;;;0.10;0.10;;;;;;;;;;5000157;28;20242;-93
2022/12/28 00:27:30;;;;;;;;;;;;;;;;;;;;;
2022/12/28 00:30:05;;;;;;;0.33;0.13;;;;;;;;;;4998361;28;20291;-92
2022/12/28 00:32:36;;;;;;;0.57;0.57;;;;;;;;;;4994327;28;20238;-94
2022/12/28 00:35:05;;;;;;;0.47;0.47;;;;;;;;;;4983558;28;20213;-92
2022/12/28 00:37:34;;;;;;;2.23;0.90;;;;;;;;;;4981082;28;20198;-92
2022/12/28 00:40:05;;;;;;;1.33;0.50;;;;;;;;;;4981065;28;20264;-92
2022/12/28 00:42:40;;;;;;;1.40;0.87;;;;;;;;;;4980833;28;20206;-93
2022/12/28 00:45:15;;;;;;;0.27;0.27;;;;;;;;;;4980909;28;20221;-91
2022/12/28 00:47:48;;;;;;;0.00;0.00;;;;;;;;;;4983039;28;20252;-92
2022/12/28 00:50:18;;;;;;;0.40;0.37;;;;;;;;;;4983600;28;20727;-92
2022/12/28 00:53:06;;;;;;;0.80;0.80;;;;;;;;;;4982459;28;20237;-90
2022/12/28 00:55:37;;;;;;;0.40;0.40;;;;;;;;;;4980372;28;20277;-94
2022/12/28 00:58:16;;;;;;;0.60;0.60;;;;;;;;;;4980462;28;20226;-93
2022/12/28 01:00:44;;;;;;;0.60;0.60;;;;;;;;;;4979555;28;20202;-92
2022/12/28 01:03:14;;;;;;;0.30;0.30;;;;;;;;;;4980285;28;20632;-91
2022/12/28 01:05:52;;;;;;;0.77;0.77;;;;;;;;;;4980647;28;20783;-93
2022/12/28 01:08:29;;;;;;;3.30;1.10;;;;;;;;;;4979593;28;20601;-92
2022/12/28 01:11:10;;;;;;;0.30;0.30;;;;;;;;;;4980013;28;20198;-92
2022/12/28 01:13:40;;;;;;;0.10;0.10;;;;;;;;;;4979555;28;20229;-92
2022/12/28 01:16:13;;;;;;;0.73;0.73;;;;;;;;;;4966899;28;20289;-92
2022/12/28 01:18:48;;;;;;;1.43;0.30;;;;;;;;;;4988669;28;20178;-92
2022/12/28 01:21:19;;;;;;;0.27;0.27;;;;;;;;;;4997861;28;20453;-93
2022/12/28 01:23:48;;;;;;;1.03;1.03;;;;;;;;;;4981161;28;20715;-90
2022/12/28 01:26:34;;;;;;;0.60;0.60;;;;;;;;;;4979788;28;20221;-91
2022/12/28 01:29:09;;;;;;;0.40;0.40;;;;;;;;;;4978733;28;20284;-93
2022/12/28 01:31:51;;;;;;;1.17;0.97;;;;;;;;;;4979239;28;20626;-93
2022/12/28 01:34:37;;;;;;;;;;;;;;;;;;;;;
2022/12/28 01:37:06;;;;;;;0.60;0.47;;;;;;;;;;4979035;28;20221;-93
2022/12/28 01:39:38;;;;;;;0.30;0.30;;;;;;;;;;4978369;28;20197;-92
2022/12/28 01:42:14;;;;;;;0.73;0.50;;;;;;;;;;4978604;28;20257;-91
2022/12/28 01:44:45;;;;;;;2.83;0.63;;;;;;;;;;4978573;28;20276;-94
2022/12/28 01:47:22;;;;;;;0.23;0.23;;;;;;;;;;4977989;28;20691;-91
2022/12/28 01:50:02;;;;;;;0.87;0.57;;;;;;;;;;4977254;28;20282;-91
2022/12/28 01:52:38;;;;;;;1.47;0.60;;;;;;;;;;4960437;28;20202;-93
2022/12/28 01:55:08;;;;;;;0.80;0.40;;;;;;;;;;4979982;28;20225;-92
2022/12/28 01:57:41;;;;;;;0.50;0.50;;;;;;;;;;4997593;28;20198;-94
2022/12/28 02:00:23;;;;;;;0.77;0.77;;;;;;;;;;4997870;28;20182;-94
2022/12/28 02:02:55;;;;;;;0.67;0.17;;;;;;;;;;4998871;28;20249;-92
2022/12/28 02:05:27;;;;;;;0.50;0.50;;;;;;;;;;4983498;28;20204;-92
2022/12/28 02:08:01;;;;;;;1.70;1.60;;;;;;;;;;4979286;28;20198;-93
2022/12/28 02:10:34;;;;;;;0.87;0.30;;;;;;;;;;4978352;28;20746;-92
2022/12/28 02:13:23;;;;;;;;;;;;;;;;;;;;;
2022/12/28 02:15:53;;;;;;;0.53;0.53;;;;;;;;;;4977481;28;20190;-93
2022/12/28 02:21:19;;;;;;;1.93;0.63;;;;;;;;;;4978972;28;20206;-92
2022/12/28 02:24:23;;;;;;;0.80;0.80;;;;;;;;;;4979696;28;20225;-92
2022/12/28 02:26:58;;;;;;;0.43;0.43;;;;;;;;;;4982089;28;20202;-92
2022/12/28 02:29:54;;;;;;;2.73;0.50;;;;;;;;;;4980385;28;20222;-91
2022/12/28 02:32:31;;;;;;;0.53;0.53;;;;;;;;;;4980703;28;20209;-91
2022/12/28 02:35:03;;;;;;;0.20;0.20;;;;;;;;;;4980631;28;20622;-92
2022/12/28 02:37:36;;;;;;;0.57;0.57;;;;;;;;;;4979868;28;20706;-91
2022/12/28 02:40:07;;;;;;;0.30;0.30;;;;;;;;;;4977547;28;20201;-93
2022/12/28 02:42:35;;;;;;;0.40;0.40;;;;;;;;;;4978154;28;20256;-92
2022/12/28 02:51:21;;;;;;;1.20;1.00;;;;;;;;;;4979787;28;20197;-92
2022/12/28 02:56:05;;;;;;;0.63;0.60;;;;;;;;;;4978956;28;20288;-94
2022/12/28 02:57:09;;;;;;;0.30;0.23;;;;;;;;;;4968101;28;20229;-91
2022/12/28 03:00:03;;;;;;;0.77;0.77;;;;;;;;;;4979848;28;20210;-91
2022/12/28 03:02:58;;;;;;;0.80;0.80;;;;;;;;;;4990756;28;20250;-91
2022/12/28 03:08:31;;;;;;;0.43;0.30;;;;;;;;;;4997646;28;20201;-94
2022/12/28 03:11:04;;;;;;;2.60;1.30;;;;;;;;;;4997799;28;20194;-92
2022/12/28 03:13:55;;;;;;;0.77;0.73;;;;;;;;;;4997046;28;20296;-91
2022/12/28 03:25:41;;;;;;;1.17;1.17;;;;;;;;;;4997228;28;20208;-92
2022/12/28 03:33:22;;;;;;;2.63;0.60;;;;;;;;;;4997487;28;20196;-93
2022/12/28 03:35:58;;;;;;;1.33;0.90;;;;;;;;;;4997509;28;20176;-93
2022/12/28 03:38:50;;;;;;;2.20;0.80;;;;;;;;;;4997036;28;20210;-92
2022/12/28 03:41:19;;;;;;;0.17;0.17;;;;;;;;;;4992209;28;20198;-92
2022/12/28 03:43:47;;;;;;;1.30;0.77;;;;;;;;;;4991278;28;20210;-91
2022/12/28 03:46:18;;;;;;;1.03;0.83;;;;;;;;;;4988724;28;20229;-92
2022/12/28 03:48:59;;;;;;;0.60;0.60;;;;;;;;;;4990850;28;20218;-93
2022/12/28 03:51:45;;;;;;;0.33;0.33;;;;;;;;;;4995396;28;20193;-92
2022/12/28 03:54:23;;;;;;;0.47;0.33;;;;;;;;;;4984952;28;20780;-93
2022/12/28 03:56:59;;;;;;;0.50;0.50;;;;;;;;;;4987135;28;20467;-92
2022/12/28 03:59:30;;;;;;;2.53;0.97;;;;;;;;;;4988107;28;20236;-93
2022/12/28 04:02:03;;;;;;;1.93;0.50;;;;;;;;;;4994884;28;20278;-92
2022/12/28 04:04:46;;;;;;;1.17;1.07;;;;;;;;;;4990557;28;20206;-91
2022/12/28 04:07:32;;;;;;;0.47;0.47;;;;;;;;;;4986505;28;20213;-91
2022/12/28 04:10:07;;;;;;;0.73;0.73;;;;;;;;;;4986535;28;20226;-91
2022/12/28 04:12:49;;;;;;;0.30;0.30;;;;;;;;;;4983880;28;20264;-93
2022/12/28 04:15:26;;;;;;;0.20;0.20;;;;;;;;;;4984555;28;20245;-93
2022/12/28 04:18:03;;;;;;;0.47;0.47;;;;;;;;;;4987687;28;20210;-91
2022/12/28 04:20:39;;;;;;;0.40;0.40;;;;;;;;;;4994489;28;20208;-91
2022/12/28 04:23:24;;;;;;;0.53;0.53;;;;;;;;;;4994566;28;20246;-91
2022/12/28 04:26:00;;;;;;;1.23;1.13;;;;;;;;;;4983012;28;20198;-92
2022/12/28 04:28:39;;;;;;;0.13;0.13;;;;;;;;;;4976710;28;20201;-92
2022/12/28 04:31:09;;;;;;;0.53;0.53;;;;;;;;;;4977619;28;20673;-93
2022/12/28 04:33:38;;;;;;;0.63;0.63;;;;;;;;;;4977965;28;20232;-93
2022/12/28 04:36:09;;;;;;;0.90;0.90;;;;;;;;;;4980248;28;20208;-92
2022/12/28 04:39:03;;;;;;;6.00;0.23;;;;;;;;;;4992812;28;20213;-93
2022/12/28 04:41:31;;;;;;;0.30;0.30;;;;;;;;;;4995226;28;20208;-93
2022/12/28 04:44:00;;;;;;;0.10;0.10;;;;;;;;;;4996896;28;20245;-92
2022/12/28 04:46:29;;;;;;;0.10;0.10;;;;;;;;;;4999671;28;20213;-92
2022/12/28 04:49:01;;;;;;;0.20;0.20;;;;;;;;;;4992440;28;20198;-91
2022/12/28 04:51:30;;;;;;;0.20;0.20;;;;;;;;;;4996454;28;20221;-91
2022/12/28 04:54:11;;;;;;;0.37;0.37;;;;;;;;;;4998303;28;20214;-92
2022/12/28 04:56:39;;;;;;;0.20;0.20;;;;;;;;;;4999972;28;20219;-92
2022/12/28 04:59:07;;;;;;;2.43;0.53;;;;;;;;;;4990829;28;20194;-91
2022/12/28 05:01:35;;;;;;;0.00;0.00;;;;;;;;;;4981200;28;20225;-93
2022/12/28 05:04:17;;;;;;;0.20;0.20;;;;;;;;;;4980356;28;20217;-92
2022/12/28 05:06:58;;;;;;;0.67;0.50;;;;;;;;;;4980366;28;20213;-93
2022/12/28 05:09:42;;;;;;;0.10;0.10;;;;;;;;;;4979892;28;20222;-94
2022/12/28 05:12:39;;;;;;;1.27;1.27;;;;;;;;;;4979144;28;20248;-93
2022/12/28 05:15:22;;;;;;;1.03;0.80;;;;;;;;;;4980268;28;20395;-92
2022/12/28 05:17:57;;;;;;;0.53;0.40;;;;;;;;;;4980259;28;20225;-93
2022/12/28 05:20:34;;;;;;;0.27;0.23;;;;;;;;;;4980512;28;20222;-93
2022/12/28 05:23:03;;;;;;;0.87;0.50;;;;;;;;;;4979340;28;20198;-93
2022/12/28 05:25:47;;;;;;;0.17;0.17;;;;;;;;;;4980074;28;20583;-92
2022/12/28 05:28:34;;;;;;;0.20;0.20;;;;;;;;;;4980635;28;20217;-92
2022/12/28 05:31:17;;;;;;;0.00;0.00;;;;;;;;;;4979127;28;20213;-92
2022/12/28 05:33:56;;;;;;;1.37;0.83;;;;;;;;;;4977813;28;20208;-92
2022/12/28 05:36:35;;;;;;;1.90;1.03;;;;;;;;;;4977987;28;20206;-93
2022/12/28 05:39:04;;;;;;;0.40;0.40;;;;;;;;;;4979875;28;20202;-91
2022/12/28 05:41:46;;;;;;;0.47;0.43;;;;;;;;;;4979533;28;20624;-93
2022/12/28 05:44:18;;;;;;;0.57;0.57;;;;;;;;;;4977669;28;20650;-94
2022/12/28 05:47:04;;;;;;;0.60;0.60;;;;;;;;;;4977935;28;20285;-92
2022/12/28 05:52:19;;;;;;;1.30;0.43;;;;;;;;;;4974597;28;20206;-92
2022/12/28 05:54:51;;;;;;;7.03;0.53;;;;;;;;;;4976916;28;20229;-93
2022/12/28 05:57:25;;;;;;;0.57;0.57;;;;;;;;;;4977594;28;20286;-91
2022/12/28 05:59:57;;;;;;;0.83;0.43;;;;;;;;;;4977897;28;20216;-94
2022/12/28 06:02:46;;;;;;;0.00;0.00;;;;;;;;;;4978431;28;20205;-93
2022/12/28 06:05:27;;;;;;;0.67;0.40;;;;;;;;;;4977093;28;20206;-92
2022/12/28 06:13:46;;;;;;;0.17;0.17;;;;;;;;;;4975290;28;20198;-93
2022/12/28 06:19:19;;;;;;;0.10;0.10;;;;;;;;;;4974048;28;20202;-92
2022/12/28 06:21:52;;;;;;;0.37;0.37;;;;;;;;;;4977800;28;20567;-93
2022/12/28 06:24:31;;;;;;;0.10;0.10;;;;;;;;;;4978846;28;20198;-92
2022/12/28 06:27:05;;;;;;;0.20;0.20;;;;;;;;;;4978920;28;20198;-93
2022/12/28 06:29:35;;;;;;;0.27;0.27;;;;;;;;;;4978662;28;20655;-93
2022/12/28 06:32:19;;;;;;;0.30;0.30;;;;;;;;;;4979191;28;20738;-92
2022/12/28 06:34:57;;;;;;;0.30;0.30;;;;;;;;;;4979498;28;20229;-93
2022/12/28 06:40:20;;;;;;;0.30;0.30;;;;;;;;;;4995225;28;20229;-92
2022/12/28 06:43:10;;;;;;;0.07;0.07;;;;;;;;;;4995813;28;20174;-93
2022/12/28 06:45:42;;;;;;;0.37;0.37;;;;;;;;;;4996871;28;20234;-92
2022/12/28 06:48:23;;;;;;;0.37;0.37;;;;;;;;;;4979569;28;20194;-93
2022/12/28 07:08:55;;;;;;;0.30;0.30;;;;;;;;;;4975437;28;20237;-93
2022/12/28 07:11:36;;;;;;;1.20;0.83;;;;;;;;;;4978603;28;20276;-91
2022/12/28 07:14:22;;;;;;;0.90;0.90;;;;;;;;;;4977253;28;20200;-93
2022/12/28 07:19:57;;;;;;;1.30;0.77;;;;;;;;;;4970363;28;20253;-92
2022/12/28 07:22:32;;;;;;;0.23;0.20;;;;;;;;;;4977833;28;20198;-94
2022/12/28 07:25:13;;;;;;;0.37;0.20;;;;;;;;;;4979622;28;20198;-93
2022/12/28 07:27:47;;;;;;;0.40;0.40;;;;;;;;;;4977830;28;20657;-94
2022/12/28 07:41:58;;;;;;;0.87;0.87;;;;;;;;;;4972395;28;20202;-93
2022/12/28 07:44:46;;;;;;;;;;;;;;;;;;;;;
2022/12/28 07:57:04;;;;;;;0.47;0.43;;;;;;;;;;4524059;27;18312800;-94
2022/12/28 08:24:23;;;;;;;0.40;0.40;;;;;;;;;;5067729;28;20321;-93
2022/12/28 08:33:15;;;;;;;4.73;0.93;;;;;;;;;;5075544;28;20198;-92
2022/12/28 08:39:00;;;;;;;0.30;0.30;;;;;;;;;;5071627;28;20242;-92
2022/12/28 08:41:51;;;;;;;0.13;0.13;;;;;;;;;;5074664;28;20676;-94
2022/12/28 08:47:41;;;;;;;1.37;0.57;;;;;;;;;;5072931;28;20225;-94
2022/12/28 08:50:21;;;;;;;1.63;0.63;;;;;;;;;;5078514;28;20190;-92
2022/12/28 08:53:08;;;;;;;0.30;0.30;;;;;;;;;;5077111;28;20289;-93
2022/12/28 09:01:40;;;;;;;;;;;;;;;;;;;;;
2022/12/28 09:04:29;;;;;;;2.00;0.83;;;;;;;;;;5087849;28;20190;-91
2022/12/28 09:07:22;;;;;;;;;;;;;;;;;;;;;
2022/12/28 09:10:15;;;;;;;2.43;0.83;;;;;;;;;;5081388;28;20216;-93
2022/12/28 09:23:58;;;;;;;0.40;0.40;;;;;;;;;;5080897;28;20301;-93
2022/12/28 09:27:06;;;;;;;0.30;0.30;;;;;;;;;;5096460;28;20210;-92
2022/12/28 09:29:52;;;;;;;0.40;0.40;;;;;;;;;;5089789;28;20198;-92
2022/12/28 09:33:57;;;;;;;0.93;0.93;;;;;;;;;;5080531;28;20183;-93
2022/12/28 09:36:15;;;;;;;;;;;;;;;;;;;;;
2022/12/28 09:39:00;;;;;;;0.53;0.53;;;;;;;;;;5079373;28;20198;-92
2022/12/28 09:41:49;;;;;;;0.73;0.73;;;;;;;;;;5081090;28;20207;-92
2022/12/28 09:44:52;;;;;;;3.43;0.93;;;;;;;;;;5097184;28;20271;-90
2022/12/28 09:50:44;;;;;;;0.60;0.60;;;;;;;;;;5093140;28;20224;-90
2022/12/28 09:53:40;;;;;;;0.47;0.20;;;;;;;;;;5092999;28;20200;-91
2022/12/28 09:56:53;;;;;;;0.77;0.77;;;;;;;;;;5081906;28;20270;-93
2022/12/28 10:06:00;;;;;;;;;;;;;;;;;;;;;
2022/12/28 10:11:43;;;;;;;3.60;0.70;;;;;;;;;;5070922;28;20259;-92
2022/12/28 10:14:29;;;;;;;0.63;0.40;;;;;;;;;;5078660;28;20684;-95
2022/12/28 10:20:08;;;;;;;0.40;0.40;;;;;;;;;;5094658;22;20242;-95
2022/12/28 10:22:50;;;;;;;0.30;0.30;;;;;;;;;;5080126;28;20203;-92
2022/12/28 10:25:29;;;;;;;0.67;0.60;;;;;;;;;;5079854;28;20267;-92
2022/12/28 10:28:13;;;;;;;0.43;0.43;;;;;;;;;;5079397;28;20187;-93
2022/12/28 10:31:07;;;;;;;0.20;0.20;;;;;;;;;;5080266;28;20274;-93
2022/12/28 10:33:42;;;;;;;0.43;0.43;;;;;;;;;;5080163;28;20236;-94
2022/12/28 10:36:32;;;;;;;0.40;0.40;;;;;;;;;;5079804;28;20291;-92
2022/12/28 10:39:17;;;;;;;0.70;0.70;;;;;;;;;;5080644;28;20227;-93
2022/12/28 10:41:52;;;;;;;3.53;0.47;;;;;;;;;;5096394;28;20213;-93
2022/12/28 10:44:50;;;;;;;0.77;0.70;;;;;;;;;;5092804;28;20200;-94
2022/12/28 10:47:53;;;;;;;1.03;0.53;;;;;;;;;;5080657;28;20205;-95
2022/12/28 10:50:56;;;;;;;0.50;0.50;;;;;;;;;;5080879;28;20262;-95
2022/12/28 11:05:52;;;;;;;0.70;0.70;;;;;;;;;;5072058;28;20624;-93
2022/12/28 11:08:55;;;;;;;0.40;0.40;;;;;;;;;;5079155;28;20617;-94
2022/12/28 11:17:53;;;;;;;0.67;0.60;;;;;;;;;;5079735;28;20259;-93
2022/12/28 11:26:18;;;;;;;1.43;0.47;;;;;;;;;;5075209;28;20201;-95
2022/12/28 11:37:14;;;;;;;1.47;1.03;;;;;;;;;;5075468;28;20226;-94
2022/12/28 11:39:50;;;;;;;0.70;0.70;;;;;;;;;;5077420;28;20216;-93
2022/12/28 11:42:56;;;;;;;0.33;0.33;;;;;;;;;;5075658;28;20229;-93
2022/12/28 11:51:47;;;;;;;;;;;;;;;;;;;;;
2022/12/28 12:09:55;;;;;;;1.00;0.93;;;;;;;;;;5131410;22;20350;-94
2022/12/28 12:21:45;;;;;;;2.60;1.27;;;;;;;;;;5031774;28;20221;-93
2022/12/28 12:27:39;;;;;;;0.93;0.93;;;;;;;;;;5064724;28;20198;-94
2022/12/28 12:33:28;;;;;;;0.87;0.87;;;;;;;;;;5075714;28;20214;-93
2022/12/28 12:36:25;;;;;;;0.67;0.67;;;;;;;;;;5079248;28;20257;-93
2022/12/28 12:39:35;;;;;;;;;;;;;;;;;;;;;
2022/12/28 12:45:40;;;;;;;0.80;0.80;;;;;;;;;;5078839;28;20316;-94
2022/12/28 12:48:31;;;;;;;0.50;0.50;;;;;;;;;;5097675;28;20225;-94
2022/12/28 13:00:23;;;;;;;0.83;0.83;;;;;;;;;;5076836;28;20223;-92
2022/12/28 13:22:02;;;;;;;0.80;0.67;;;;;;;;;;5007632;28;20603;-95
2022/12/28 13:36:18;;;;;;;;;;;;;;;;;;;;;
2022/12/28 13:39:11;;;;;;;1.27;1.20;;;;;;;;;;4999060;28;20206;-92
2022/12/28 13:41:57;;;;;;;2.87;1.37;;;;;;;;;;4999473;28;20203;-91
2022/12/28 13:44:45;;;;;;;1.57;1.47;;;;;;;;;;4989011;28;20198;-92
2022/12/28 13:47:43;;;;;;;2.70;1.20;;;;;;;;;;4983428;28;20593;-93
2022/12/28 13:50:30;;;;;;;1.00;1.00;;;;;;;;;;4981265;28;20687;-93
2022/12/28 13:53:02;;;;;;;9.37;2.40;;;;;;;;;;4981533;28;20226;-93
2022/12/28 13:55:43;;;;;;;0.43;0.43;;;;;;;;;;4981856;28;20202;-93
2022/12/28 14:13:10;;;;;;;2.13;0.80;;;;;;;;;;4977784;28;20205;-94
2022/12/28 14:27:43;;;;;;;0.57;0.57;;;;;;;;;;4979225;28;20210;-93
2022/12/28 14:33:25;;;;;;;2.10;1.83;;;;;;;;;;4979728;28;20220;-91
2022/12/28 14:38:51;;;;;;;9.80;6.03;;;;;;;;;;4978348;28;20289;-92
2022/12/28 14:41:35;;;;;;;7.83;4.33;;;;;;;;;;4983630;28;20202;-91
2022/12/28 14:50:27;;;;;;;2.40;1.40;;;;;;;;;;4957938;28;20202;-93
2022/12/28 14:59:43;;;;;;;0.60;0.50;;;;;;;;;;4977185;28;20220;-94
2022/12/28 15:11:00;;;;;;;3.20;2.63;;;;;;;;;;4985911;23;20260;-94
2022/12/28 15:13:46;;;;;;;5.80;1.90;;;;;;;;;;4963007;28;20195;-94
2022/12/28 15:16:16;;;;;;;6.00;1.97;;;;;;;;;;4964200;29;20234;-92
2022/12/28 15:30:37;;;;;;;1.93;1.30;;;;;;;;;;4978386;28;20212;-93
2022/12/28 15:33:09;;;;;;;1.10;1.10;;;;;;;;;;4979464;28;20202;-92
2022/12/28 15:35:42;;;;;;;1.97;1.87;;;;;;;;;;4984327;28;20274;-90
2022/12/28 15:38:23;;;;;;;3.30;1.50;;;;;;;;;;4981038;28;20233;-92
2022/12/28 15:41:45;;;;;;;3.57;1.90;;;;;;;;;;4979664;28;20213;-91
2022/12/28 15:44:19;;;;;;;1.60;1.53;;;;;;;;;;4979346;28;20309;-92
2022/12/28 15:47:22;;;;;;;5.27;1.93;;;;;;;;;;4980240;28;20190;-92
2022/12/28 15:50:03;;;;;;;2.30;1.47;;;;;;;;;;4979608;28;20289;-91
2022/12/28 15:55:32;;;;;;;3.20;1.63;;;;;;;;;;4983784;28;20195;-91
2022/12/28 16:04:10;;;;;;;1.97;1.70;;;;;;;;;;4555538;27;16824912;-92
2022/12/28 16:07:12;;;;;;;1.93;1.43;;;;;;;;;;5135673;28;20592;-92
2022/12/28 16:12:49;;;;;;;4.77;2.63;;;;;;;;;;5106354;28;20205;-92
2022/12/28 16:15:39;;;;;;;2.37;2.27;;;;;;;;;;5115287;28;20582;-92
2022/12/28 16:18:27;;;;;;;2.93;1.77;;;;;;;;;;5115914;28;20257;-91
2022/12/28 16:21:21;;;;;;;4.57;3.07;;;;;;;;;;5116170;28;20226;-93
2022/12/28 16:26:40;;;;;;;7.47;2.47;;;;;;;;;;5114883;28;20676;-92
2022/12/28 16:32:05;;;;;;;2.23;2.03;;;;;;;;;;5123853;28;20185;-92
2022/12/28 16:34:47;;;;;;;2.07;2.07;;;;;;;;;;5128733;28;20178;-91
2022/12/28 16:37:28;;;;;;;13.73;4.87;;;;;;;;;;5132574;28;20184;-92
2022/12/28 16:40:30;;;;;;;3.40;2.40;;;;;;;;;;5129513;28;20200;-92
2022/12/28 16:43:25;;;;;;;;;;;;;;;;;;;;;
2022/12/28 16:48:53;;;;;;;3.43;2.67;;;;;;;;;;5115625;28;20204;-92
2022/12/28 16:54:55;;;;;;;2.60;2.40;;;;;;;;;;5114802;28;20578;-94
2022/12/28 17:06:37;;;;;;;6.10;3.43;;;;;;;;;;5112099;28;20201;-89
2022/12/28 17:12:14;;;;;;;5.03;3.13;;;;;;;;;;5111953;28;20198;-92
2022/12/28 17:15:00;;;;;;;2.37;2.17;;;;;;;;;;5103844;28;20228;-91
2022/12/28 17:17:36;;;;;;;3.50;1.53;;;;;;;;;;5102267;28;20672;-90
2022/12/28 17:20:21;;;;;;;3.23;2.83;;;;;;;;;;5099106;28;20280;-91
2022/12/28 17:23:09;;;;;;;2.10;1.43;;;;;;;;;;5100911;28;20233;-90
2022/12/28 17:25:53;;;;;;;4.37;2.43;;;;;;;;;;5101499;28;20205;-93
2022/12/28 17:37:34;;;;;;;;;;;;;;;;;;;;;
2022/12/28 17:43:22;;;;;;;2.70;2.13;;;;;;;;;;5096470;28;20245;-90
2022/12/28 17:48:47;;;;;;;2.53;2.33;;;;;;;;;;5103584;28;20201;-90
2022/12/28 17:57:38;;;;;;;7.40;3.23;;;;;;;;;;5088613;28;20221;-92
2022/12/28 18:00:38;;;;;;;2.77;2.57;;;;;;;;;;5098963;28;20331;-90
2022/12/28 18:03:14;;;;;;;3.93;2.63;;;;;;;;;;5099874;28;20298;-92
2022/12/28 18:05:59;;;;;;;9.03;1.70;;;;;;;;;;5101370;28;20248;-92
2022/12/28 18:08:42;;;;;;;6.43;2.83;;;;;;;;;;5101260;28;20259;-91
2022/12/28 18:14:03;;;;;;;3.87;2.47;;;;;;;;;;5096424;28;20251;-92
2022/12/28 18:17:01;;;;;;;1.80;1.70;;;;;;;;;;5081562;28;20223;-92
2022/12/28 18:29:00;;;;;;;4.40;3.90;;;;;;;;;;5100588;28;20262;-92
2022/12/28 18:31:42;;;;;;;8.87;4.33;;;;;;;;;;5102441;28;20210;-93
2022/12/28 18:34:20;;;;;;;3.13;2.67;;;;;;;;;;5101073;28;20201;-93
2022/12/28 18:39:36;;;;;;;3.47;2.67;;;;;;;;;;5096739;28;20330;-92
2022/12/28 18:42:27;;;;;;;8.20;4.20;;;;;;;;;;5101562;28;20214;-91
2022/12/28 18:45:11;;;;;;;4.00;3.53;;;;;;;;;;5100905;28;20182;-90
2022/12/28 18:48:00;;;;;;;3.33;3.00;;;;;;;;;;5103394;28;20202;-91
2022/12/28 18:59:36;;;;;;;6.83;3.17;;;;;;;;;;5112783;28;20727;-91
2022/12/28 19:07:59;;;;;;;10.53;3.73;;;;;;;;;;5107744;28;20247;-91
2022/12/28 19:13:56;;;;;;;8.07;4.67;;;;;;;;;;5100612;28;20627;-91
2022/12/28 19:19:16;;;;;;;6.17;3.17;;;;;;;;;;5108876;28;20209;-88
2022/12/28 19:30:26;;;;;;;10.20;3.80;;;;;;;;;;5106353;28;20197;-90
2022/12/28 19:38:51;;;;;;;3.70;2.67;;;;;;;;;;5102838;28;20216;-91
2022/12/28 19:59:27;;;;;;;2.30;2.20;;;;;;;;;;5122532;28;20507;-91
2022/12/28 20:02:28;;;;;;;3.53;2.27;;;;;;;;;;5106893;28;20206;-90
2022/12/28 20:08:14;;;;;;;2.67;2.53;;;;;;;;;;5106558;28;20197;-90
2022/12/28 20:19:20;;;;;;;5.63;2.67;;;;;;;;;;5079401;28;20213;-90
2022/12/28 20:22:18;;;;;;;4.10;3.37;;;;;;;;;;5082854;28;20191;-89
2022/12/28 20:25:14;;;;;;;5.13;1.80;;;;;;;;;;5083899;28;20259;-91
2022/12/28 20:52:22;;;;;;;2.43;2.07;;;;;;;;;;5091064;28;20248;-91
2022/12/28 20:55:08;;;;;;;5.23;2.43;;;;;;;;;;5087124;28;20227;-91
2022/12/28 20:57:39;;;;;;;1.43;0.90;;;;;;;;;;5080599;28;20319;-90
2022/12/28 21:00:34;;;;;;;;;;;;;;;;;;;;;
2022/12/28 21:03:19;;;;;;;7.00;2.60;;;;;;;;;;5079303;28;20578;-91
2022/12/28 21:06:14;;;;;;;0.47;0.47;;;;;;;;;;5080865;28;20271;-91
2022/12/28 21:15:00;;;;;;;2.50;1.50;;;;;;;;;;5068580;28;20306;-91
2022/12/28 21:24:04;;;;;;;2.27;2.03;;;;;;;;;;5055345;28;20214;-90
2022/12/28 21:29:56;;;;;;;4.03;2.50;;;;;;;;;;5056517;28;20207;-91
2022/12/28 21:35:33;;;;;;;3.47;3.37;;;;;;;;;;5059870;28;20207;-92
2022/12/28 21:44:04;;;;;;;4.13;2.77;;;;;;;;;;5027076;28;20706;-92
2022/12/28 21:52:21;;;;;;;4.63;3.03;;;;;;;;;;5035681;28;20208;-92
2022/12/28 21:55:40;;;;;;;3.10;2.93;;;;;;;;;;5041878;28;20630;-91
2022/12/28 21:57:56;;;;;;;2.17;1.90;;;;;;;;;;5050328;28;20228;-91
2022/12/28 22:06:09;;;;;;;3.77;3.47;;;;;;;;;;5058674;28;20198;-91
2022/12/28 22:15:49;;;;;;;10.37;3.20;;;;;;;;;;5052026;28;20471;-90
2022/12/28 22:21:09;;;;;;;;;;;;;;;;;;;;;
2022/12/28 22:23:42;;;;;;;1.80;1.40;;;;;;;;;;5050463;28;20207;-91
2022/12/28 22:29:16;;;;;;;2.33;2.23;;;;;;;;;;5054430;28;20192;-93
2022/12/28 22:32:01;;;;;;;3.83;3.63;;;;;;;;;;5042281;28;20660;-92
2022/12/28 22:34:34;;;;;;;3.20;2.93;;;;;;;;;;5036420;28;20290;-92
2022/12/28 22:37:11;;;;;;;4.13;3.13;;;;;;;;;;5036626;28;20200;-93
2022/12/28 22:39:49;;;;;;;5.60;1.87;;;;;;;;;;5037188;28;20196;-89
2022/12/28 22:42:40;;;;;;;2.47;2.37;;;;;;;;;;5036540;28;20208;-92
2022/12/28 22:45:35;;;;;;;2.63;2.50;;;;;;;;;;5037234;28;20283;-91
2022/12/28 22:48:21;;;;;;;1.10;1.10;;;;;;;;;;5037035;28;20192;-92
2022/12/28 22:51:08;;;;;;;2.70;2.50;;;;;;;;;;5036773;28;20203;-93
2022/12/28 22:54:08;;;;;;;0.90;0.90;;;;;;;;;;5040244;28;20192;-92
2022/12/28 22:57:07;;;;;;;2.90;1.70;;;;;;;;;;5041991;28;20203;-93
2022/12/28 22:59:42;;;;;;;1.70;1.60;;;;;;;;;;5048347;28;20199;-93
2022/12/28 23:02:16;;;;;;;3.27;2.47;;;;;;;;;;5037221;28;20225;-92
2022/12/28 23:04:58;;;;;;;1.60;1.60;;;;;;;;;;5036871;28;20200;-91
2022/12/28 23:07:38;;;;;;;2.67;2.47;;;;;;;;;;5036417;28;20265;-90
2022/12/28 23:13:05;;;;;;;2.30;1.97;;;;;;;;;;5036054;28;20200;-90
2022/12/28 23:15:55;;;;;;;5.30;2.40;;;;;;;;;;5036402;28;20262;-92
2022/12/28 23:33:14;;;;;;;2.83;2.67;;;;;;;;;;5034001;28;20652;-93
2022/12/28 23:36:05;;;;;;;3.03;0.97;;;;;;;;;;5036279;28;20199;-92
2022/12/28 23:38:35;;;;;;;1.80;1.70;;;;;;;;;;5035427;28;20231;-91
2022/12/28 23:44:18;;;;;;;1.40;1.30;;;;;;;;;;5000800;28;20198;-93
2022/12/28 23:46:57;;;;;;;3.33;2.07;;;;;;;;;;5035915;28;20282;-92
2022/12/28 23:49:29;;;;;;;3.73;2.00;;;;;;;;;;5036644;28;20230;-91
2022/12/28 23:52:08;;;;;;;1.90;1.80;;;;;;;;;;5036297;28;20207;-92
2022/12/28 23:54:48;;;;;;;1.60;1.37;;;;;;;;;;5036667;28;20196;-92
2022/12/28 23:57:19;;;;;;;5.87;1.80;;;;;;;;;;5035114;28;20233;-92
2022/12/28 23:59:52;;;;;;;6.83;1.47;;;;;;;;;;5036576;28;20231;-92
